Time;durP1;ratioP1;P1;durP2;ratioP2;P2;SDS_P1;SDS_P2;PMS_P1;PMS_P2;Temp;Humidity;BMP_temperature;BMP_pressure;BME280_temperature;BME280_humidity;BME280_pressure;Samples;Min_cycle;Max_cycle;Signal;HPM_P1;HPM_P2
2024/04/07 00:02:13;;;;;;;;;;;;;;;21.29;43.37;95704.34;10471153;28;2785;-59
2024/04/07 00:07:14;;;;;;;;;;;;;;;21.29;43.53;95700.97;10453610;28;2778;-59
2024/04/07 00:12:14;;;;;;;;;;;;;;;21.29;43.25;95712.25;10452923;28;2809;-59
2024/04/07 00:17:14;;;;;;;;;;;;;;;21.29;43.22;95712.25;10452548;28;2826;-59
2024/04/07 00:22:15;;;;;;;;;;;;;;;21.30;43.39;95707.78;10480821;28;2822;-59
2024/04/07 00:27:16;;;;;;;;;;;;;;;21.28;43.35;95708.06;10454284;28;2737;-59
2024/04/07 00:32:16;;;;;;;;;;;;;;;21.29;43.13;95708.88;10463967;28;2541;-59
2024/04/07 00:37:16;;;;;;;;;;;;;;;21.29;43.02;95714.91;10447950;28;2876;-60
2024/04/07 00:42:17;;;;;;;;;;;;;;;21.28;43.09;95715.19;10436285;28;2876;-59
2024/04/07 00:47:17;;;;;;;;;;;;;;;21.28;42.98;95712.56;10468694;28;2575;-59
2024/04/07 00:52:17;;;;;;;;;;;;;;;21.28;42.96;95718.63;10455290;28;2829;-60
2024/04/07 00:57:18;;;;;;;;;;;;;;;21.29;42.96;95727.31;10454086;28;2794;-59
2024/04/07 01:02:18;;;;;;;;;;;;;;;21.28;43.02;95733.63;10435959;28;2889;-59
2024/04/07 01:07:18;;;;;;;;;;;;;;;21.29;43.18;95745.78;10468590;28;2771;-59
2024/04/07 01:12:18;;;;;;;;;;;;;;;21.29;42.95;95756.31;10468792;28;2818;-60
2024/04/07 01:17:19;;;;;;;;;;;;;;;21.29;43.28;95748.41;10481017;28;2834;-59
2024/04/07 01:22:19;;;;;;;;;;;;;;;21.29;42.87;95761.59;10471196;28;2628;-61
2024/04/07 01:27:20;;;;;;;;;;;;;;;21.28;42.88;95773.19;10449697;28;2952;-60
2024/04/07 01:32:20;;;;;;;;;;;;;;;21.28;42.83;95771.34;10451557;28;2649;-59
2024/04/07 01:37:20;;;;;;;;;;;;;;;21.28;42.87;95765.28;10466056;28;2867;-59
2024/04/07 01:42:22;;;;;;;;;;;;;;;21.29;42.90;95769.50;10467402;28;2548;-60
2024/04/07 01:47:22;;;;;;;;;;;;;;;21.29;42.75;95758.97;10449248;28;2762;-59
2024/04/07 01:52:24;;;;;;;;;;;;;;;21.28;42.75;95755.53;10454164;28;2917;-60
2024/04/07 01:57:25;;;;;;;;;;;;;;;21.28;42.74;95744.97;10455605;28;2653;-59
2024/04/07 02:02:25;;;;;;;;;;;;;;;21.28;42.67;95737.06;10467394;28;2876;-59
2024/04/07 02:07:26;;;;;;;;;;;;;;;21.28;42.72;95729.16;10468985;28;2653;-59
2024/04/07 02:12:26;;;;;;;;;;;;;;;21.27;42.58;95732.84;10453819;28;2770;-59
2024/04/07 02:17:26;;;;;;;;;;;;;;;21.28;42.75;95736.28;10465809;28;2765;-60
2024/04/07 02:22:27;;;;;;;;;;;;;;;21.28;42.73;95731.00;10465406;28;2706;-60
2024/04/07 02:27:27;;;;;;;;;;;;;;;21.27;42.57;95735.47;10434997;28;2850;-60
2024/04/07 02:32:27;;;;;;;;;;;;;;;21.26;42.62;95741.84;10473673;28;2739;-60
2024/04/07 02:37:27;;;;;;;;;;;;;;;21.27;42.44;95740.00;10468463;28;2849;-59
2024/04/07 02:42:28;;;;;;;;;;;;;;;21.26;42.61;95741.03;10453367;28;2873;-59
2024/04/07 02:52:47;;;;;;;;;;;;;;;21.26;42.38;95725.22;10492071;28;2848;-60
2024/04/07 02:57:47;;;;;;;;;;;;;;;21.26;42.38;95730.50;10458249;28;2782;-59
2024/04/07 03:02:47;;;;;;;;;;;;;;;21.25;42.54;95727.06;10441099;28;2633;-59
2024/04/07 03:07:51;;;;;;;;;;;;;;;21.26;42.33;95717.31;10458399;28;2664;-59
2024/04/07 03:12:51;;;;;;;;;;;;;;;21.26;42.45;95710.19;10438343;28;2873;-59
2024/04/07 03:17:52;;;;;;;;;;;;;;;21.26;42.25;95718.09;10455399;28;2548;-59
2024/04/07 03:22:52;;;;;;;;;;;;;;;21.26;42.50;95725.22;10454117;28;2731;-58
2024/04/07 03:27:52;;;;;;;;;;;;;;;21.26;42.53;95726.00;10452053;28;2818;-59
2024/04/07 03:32:53;;;;;;;;;;;;;;;21.26;42.30;95728.66;10456781;28;2944;-59
2024/04/07 03:37:53;;;;;;;;;;;;;;;21.25;42.51;95728.91;10451584;28;5495;-59
2024/04/07 03:42:54;;;;;;;;;;;;;;;21.25;42.35;95727.06;10452654;28;2920;-60
2024/04/07 03:47:54;;;;;;;;;;;;;;;21.25;42.31;95734.97;10462047;28;2868;-59
2024/04/07 03:52:54;;;;;;;;;;;;;;;21.25;42.25;95734.19;10471111;28;2869;-59
2024/04/07 03:57:55;;;;;;;;;;;;;;;21.26;42.34;95735.78;10474999;28;2790;-59
2024/04/07 04:02:55;;;;;;;;;;;;;;;21.26;42.46;95733.13;10453763;28;2631;-59
2024/04/07 04:07:56;;;;;;;;;;;;;;;21.25;42.25;95719.16;10453643;28;2804;-60
2024/04/07 04:12:56;;;;;;;;;;;;;;;21.25;42.15;95721.78;10457692;28;2769;-59
2024/04/07 04:17:57;;;;;;;;;;;;;;;21.25;42.38;95713.09;10473734;28;2750;-59
2024/04/07 04:22:57;;;;;;;;;;;;;;;21.25;42.17;95718.38;10458777;28;2799;-59
2024/04/07 04:27:57;;;;;;;;;;;;;;;21.25;42.31;95713.09;10469575;28;2773;-59
2024/04/07 04:32:58;;;;;;;;;;;;;;;21.26;42.34;95722.59;10466865;28;2856;-59
2024/04/07 04:38:01;;;;;;;;;;;;;;;21.25;41.98;95713.09;10455230;28;2727;-59
2024/04/07 04:43:01;;;;;;;;;;;;;;;21.24;42.04;95714.16;10437690;28;2723;-59
2024/04/07 04:48:03;;;;;;;;;;;;;;;21.24;42.11;95711.53;10472890;28;2804;-60
2024/04/07 04:53:03;;;;;;;;;;;;;;;21.24;41.96;95714.16;10454027;28;2806;-59
2024/04/07 04:58:03;;;;;;;;;;;;;;;21.23;42.11;95716.00;10454873;28;2824;-59
2024/04/07 05:03:04;;;;;;;;;;;;;;;21.23;42.25;95718.66;10467228;28;2586;-59
2024/04/07 05:08:05;;;;;;;;;;;;;;;21.23;42.19;95725.75;10463331;28;2851;-60
2024/04/07 05:13:05;;;;;;;;;;;;;;;21.23;41.98;95736.31;10449273;28;2735;-60
2024/04/07 05:18:05;;;;;;;;;;;;;;;21.23;42.03;95733.66;10452319;28;2919;-59
2024/04/07 05:23:05;;;;;;;;;;;;;;;21.22;41.78;95747.94;10464029;28;2802;-60
2024/04/07 05:28:06;;;;;;;;;;;;;;;21.23;41.82;95754.75;10459963;28;2838;-60
2024/04/07 05:33:06;;;;;;;;;;;;;;;21.23;41.95;95762.66;10449965;28;2864;-60
2024/04/07 05:38:06;;;;;;;;;;;;;;;21.23;41.93;95773.22;10455169;28;2592;-60
2024/04/07 05:43:06;;;;;;;;;;;;;;;21.22;41.97;95775.09;10467826;28;2948;-60
2024/04/07 05:48:07;;;;;;;;;;;;;;;21.22;42.03;95772.44;10469006;28;2808;-60
2024/04/07 05:53:07;;;;;;;;;;;;;;;21.21;42.11;95767.44;10471090;28;2788;-60
2024/04/07 05:58:07;;;;;;;;;;;;;;;21.19;41.80;95770.34;10469589;28;2858;-60
2024/04/07 06:03:08;;;;;;;;;;;;;;;21.18;41.80;95770.63;10448244;28;2879;-60
2024/04/07 06:08:08;;;;;;;;;;;;;;;21.18;41.78;95781.19;10464825;28;2579;-59
2024/04/07 06:13:08;;;;;;;;;;;;;;;21.17;41.70;95774.31;10464584;28;2621;-60
2024/04/07 06:18:09;;;;;;;;;;;;;;;21.16;41.55;95765.66;10451976;28;2822;-60
2024/04/07 06:23:09;;;;;;;;;;;;;;;21.16;41.94;95778.03;10471056;28;2865;-60
2024/04/07 06:28:10;;;;;;;;;;;;;;;21.15;41.51;95773.81;10455117;28;2806;-60
2024/04/07 06:33:11;;;;;;;;;;;;;;;21.15;41.71;95789.63;10469575;28;2859;-60
2024/04/07 06:38:11;;;;;;;;;;;;;;;21.12;40.84;95782.28;10476616;28;2575;-59
2024/04/07 06:43:11;;;;;;;;;;;;;;;21.03;39.58;95776.81;10456525;28;2789;-59
2024/04/07 06:48:11;;;;;;;;;;;;;;;21.00;39.42;95785.22;10462848;28;2970;-61
2024/04/07 06:53:12;;;;;;;;;;;;;;;20.98;38.68;95787.34;10442544;28;2841;-59
2024/04/07 06:58:12;;;;;;;;;;;;;;;20.98;39.33;95787.34;10459342;28;2817;-58
2024/04/07 07:03:12;;;;;;;;;;;;;;;20.99;39.78;95789.75;10471720;28;2787;-58
2024/04/07 07:08:12;;;;;;;;;;;;;;;21.00;39.54;95801.84;10474314;28;2893;-58
2024/04/07 07:13:13;;;;;;;;;;;;;;;21.00;39.60;95801.84;10456881;28;2593;-59
2024/04/07 07:18:13;;;;;;;;;;;;;;;21.00;39.43;95807.09;10471849;28;2765;-59
2024/04/07 07:23:14;;;;;;;;;;;;;;;20.98;38.75;95872.47;10474741;28;2854;-59
2024/04/07 07:28:14;;;;;;;;;;;;;;;20.89;37.19;95902.31;10483104;28;2549;-59
2024/04/07 07:33:14;;;;;;;;;;;;;;;20.75;36.20;95932.94;10472011;28;2968;-59
2024/04/07 07:38:15;;;;;;;;;;;;;;;20.66;35.89;95953.00;10455180;28;2916;-59
2024/04/07 07:43:15;;;;;;;;;;;;;;;20.61;35.73;95953.03;10471766;28;2794;-59
2024/04/07 07:48:16;;;;;;;;;;;;;;;20.55;35.55;95949.59;10457631;28;2738;-61
2024/04/07 07:53:19;;;;;;;;;;;;;;;20.59;35.86;95963.00;10453636;28;2794;-58
2024/04/07 07:58:19;;;;;;;;;;;;;;;20.66;36.19;95953.00;10454776;28;2622;-59
2024/04/07 08:03:19;;;;;;;;;;;;;;;20.71;36.39;95950.34;10458482;28;2808;-60
2024/04/07 08:08:19;;;;;;;;;;;;;;;20.73;36.57;95946.38;10456813;28;2922;-61
2024/04/07 08:13:20;;;;;;;;;;;;;;;20.78;36.93;95971.91;10454304;28;2982;-60
2024/04/07 08:18:20;;;;;;;;;;;;;;;20.82;37.04;95954.50;10456734;28;2611;-58
2024/04/07 08:23:20;;;;;;;;;;;;;;;20.85;37.01;95975.84;10472308;28;2879;-61
2024/04/07 08:28:20;;;;;;;;;;;;;;;20.87;36.81;95981.66;10470714;28;2897;-58
2024/04/07 08:33:21;;;;;;;;;;;;;;;20.89;37.07;95971.63;10456781;28;2822;-58
2024/04/07 08:38:21;;;;;;;;;;;;;;;20.92;36.89;95986.88;10472687;28;2806;-61
2024/04/07 08:43:21;;;;;;;;;;;;;;;20.91;36.43;95981.88;10455703;28;2750;-62
2024/04/07 08:48:22;;;;;;;;;;;;;;;20.89;36.12;95974.25;10478681;28;2544;-61
2024/04/07 08:53:22;;;;;;;;;;;;;;;20.95;36.68;95988.19;10466735;28;2940;-60
2024/04/07 08:58:22;;;;;;;;;;;;;;;20.97;36.69;95978.97;10458171;28;2820;-61
2024/04/07 09:03:22;;;;;;;;;;;;;;;21.00;37.18;95981.03;10466141;28;2647;-59
2024/04/07 09:08:23;;;;;;;;;;;;;;;21.01;36.99;95982.63;10455099;28;2730;-59
2024/04/07 09:13:24;;;;;;;;;;;;;;;21.03;37.25;95980.53;10444079;28;2728;-59
2024/04/07 09:18:24;;;;;;;;;;;;;;;21.04;37.22;95981.34;10440612;28;2658;-59
2024/04/07 09:23:24;;;;;;;;;;;;;;;21.06;37.26;95979.22;10473263;28;2863;-59
2024/04/07 09:28:25;;;;;;;;;;;;;;;21.02;37.81;95967.63;10438321;28;2742;-59
2024/04/07 09:33:25;;;;;;;;;;;;;;;21.04;38.81;95973.44;10454467;28;2776;-59
2024/04/07 09:38:25;;;;;;;;;;;;;;;21.06;39.20;95969.44;10473139;28;2513;-61
2024/04/07 09:43:29;;;;;;;;;;;;;;;21.09;39.70;95973.41;10481142;28;2719;-62
2024/04/07 09:48:29;;;;;;;;;;;;;;;21.12;39.89;95972.06;10454009;28;2528;-62
2024/04/07 09:53:53;;;;;;;;;;;;;;;21.15;40.75;95959.13;10458043;28;2813;-62
2024/04/07 09:58:53;;;;;;;;;;;;;;;21.19;41.78;95967.28;10432216;28;2719;-61
2024/04/07 10:03:53;;;;;;;;;;;;;;;21.22;42.10;95966.75;10451292;28;2829;-55
2024/04/07 10:08:54;;;;;;;;;;;;;;;21.25;43.17;95976.72;10472126;28;2817;-58
2024/04/07 10:13:54;;;;;;;;;;;;;;;21.27;43.16;95964.09;10453369;28;2761;-59
2024/04/07 10:18:54;;;;;;;;;;;;;;;21.28;43.51;95969.09;10418072;28;2853;-58
2024/04/07 10:23:54;;;;;;;;;;;;;;;21.29;43.79;95970.66;10453289;28;2820;-59
2024/04/07 10:28:56;;;;;;;;;;;;;;;21.28;43.22;95963.00;10452340;28;2841;-58
2024/04/07 10:33:56;;;;;;;;;;;;;;;21.26;42.67;95968.56;10450170;28;2597;-56
2024/04/07 10:38:57;;;;;;;;;;;;;;;21.25;42.69;95964.34;10450456;28;2881;-60
2024/04/07 10:44:00;;;;;;;;;;;;;;;21.25;41.31;95961.72;10452183;28;2749;-60
2024/04/07 10:49:02;;;;;;;;;;;;;;;21.23;41.18;95963.03;10451708;28;2949;-60
2024/04/07 10:54:03;;;;;;;;;;;;;;;21.22;41.66;95969.38;10452083;28;2673;-60
2024/04/07 10:59:03;;;;;;;;;;;;;;;21.24;41.47;95959.34;10458626;28;2730;-60
2024/04/07 11:04:03;;;;;;;;;;;;;;;21.25;41.74;95964.34;10449974;28;2592;-60
2024/04/07 11:09:04;;;;;;;;;;;;;;;21.27;40.96;95961.47;10462019;28;2821;-60
2024/04/07 11:14:07;;;;;;;;;;;;;;;21.27;41.40;95956.94;10475169;28;2861;-59
2024/04/07 11:19:08;;;;;;;;;;;;;;;21.29;41.51;95951.44;10447062;28;2577;-60
2024/04/07 11:24:08;;;;;;;;;;;;;;;21.32;41.48;95945.59;10454672;28;2831;-62
2024/04/07 11:29:12;;;;;;;;;;;;;;;21.32;41.64;95941.13;10458597;28;2787;-62
2024/04/07 11:34:12;;;;;;;;;;;;;;;21.33;42.62;95941.91;10452638;28;2924;-60
2024/04/07 11:39:12;;;;;;;;;;;;;;;21.37;41.84;95941.06;10467956;28;2806;-61
2024/04/07 11:44:12;;;;;;;;;;;;;;;21.37;42.73;95932.38;10456312;28;2861;-61
2024/04/07 11:49:13;;;;;;;;;;;;;;;21.41;41.92;95931.53;10469764;28;2873;-63
2024/04/07 11:54:13;;;;;;;;;;;;;;;21.46;41.17;95936.00;10469326;28;2795;-61
2024/04/07 11:59:13;;;;;;;;;;;;;;;21.48;40.98;95937.31;10470400;28;2860;-61
2024/04/07 12:04:14;;;;;;;;;;;;;;;21.51;40.40;95928.06;10464602;28;2838;-61
2024/04/07 12:09:14;;;;;;;;;;;;;;;21.50;40.26;95931.75;10448282;28;2928;-61
2024/04/07 12:14:14;;;;;;;;;;;;;;;21.52;40.23;95930.41;10472522;28;2793;-61
2024/04/07 12:19:14;;;;;;;;;;;;;;;21.53;40.07;95920.66;10452311;28;2775;-61
2024/04/07 12:24:15;;;;;;;;;;;;;;;21.52;39.81;95914.59;10459146;28;2845;-61
2024/04/07 12:29:15;;;;;;;;;;;;;;;21.54;39.29;95909.84;10431147;28;2781;-62
2024/04/07 12:34:15;;;;;;;;;;;;;;;21.54;39.25;95890.56;10450038;28;2802;-62
2024/04/07 12:39:16;;;;;;;;;;;;;;;21.54;39.03;95896.63;10468085;28;2773;-61
2024/04/07 12:44:19;;;;;;;;;;;;;;;21.55;39.06;95894.81;10465092;28;2763;-61
2024/04/07 12:49:20;;;;;;;;;;;;;;;21.54;39.03;95894.00;10450340;28;2778;-61
2024/04/07 12:54:20;;;;;;;;;;;;;;;21.55;38.79;95879.78;10452726;28;2911;-61
2024/04/07 12:59:20;;;;;;;;;;;;;;;21.59;38.49;95872.09;10449485;28;2804;-62
2024/04/07 13:04:21;;;;;;;;;;;;;;;21.58;38.71;95868.66;10462808;28;2824;-61
2024/04/07 13:09:21;;;;;;;;;;;;;;;21.58;38.47;95863.38;10479660;28;2776;-61
2024/04/07 13:14:21;;;;;;;;;;;;;;;21.59;38.38;95858.91;10464202;28;2654;-61
2024/04/07 13:19:22;;;;;;;;;;;;;;;21.57;38.31;95856.53;10465113;28;2686;-60
2024/04/07 13:24:22;;;;;;;;;;;;;;;21.58;38.13;95847.53;10450533;28;2781;-61
2024/04/07 13:29:22;;;;;;;;;;;;;;;21.57;38.30;95845.19;10424746;28;2796;-61
2024/04/07 13:34:22;;;;;;;;;;;;;;;21.55;38.11;95840.19;10464168;28;2737;-60
2024/04/07 13:39:23;;;;;;;;;;;;;;;21.55;38.13;95845.47;10460517;28;2836;-61
2024/04/07 13:44:23;;;;;;;;;;;;;;;21.54;38.24;95835.97;10445350;28;2848;-61
2024/04/07 13:49:23;;;;;;;;;;;;;;;21.55;38.10;95831.50;10447405;28;2784;-60
2024/04/07 13:54:24;;;;;;;;;;;;;;;21.54;38.30;95819.34;10446735;28;2803;-60
2024/04/07 13:59:24;;;;;;;;;;;;;;;21.54;38.24;95819.34;10463058;28;2922;-60
2024/04/07 14:04:24;;;;;;;;;;;;;;;21.54;38.32;95824.63;10443539;28;2822;-60
2024/04/07 14:09:24;;;;;;;;;;;;;;;21.54;38.32;95822.00;10473762;28;2583;-61
2024/04/07 14:14:25;;;;;;;;;;;;;;;21.55;38.16;95810.41;10459677;28;2606;-61
2024/04/07 14:19:25;;;;;;;;;;;;;;;21.56;38.14;95804.84;10444244;28;2771;-60
2024/04/07 14:24:26;;;;;;;;;;;;;;;21.56;38.46;95796.91;10459566;28;2890;-60
2024/04/07 14:29:26;;;;;;;;;;;;;;;21.58;38.92;95794.00;10445883;28;2705;-60
2024/04/07 14:34:26;;;;;;;;;;;;;;;21.58;39.06;95797.44;10458062;28;2617;-60
2024/04/07 14:39:27;;;;;;;;;;;;;;;21.59;39.39;95787.66;10447457;28;2797;-60
2024/04/07 14:44:27;;;;;;;;;;;;;;;21.62;39.10;95781.81;10452037;28;2852;-60
2024/04/07 14:49:28;;;;;;;;;;;;;;;21.62;39.42;95777.34;10440206;28;2867;-60
2024/04/07 14:54:29;;;;;;;;;;;;;;;21.62;39.39;95771.28;10472119;28;2710;-60
2024/04/07 14:59:29;;;;;;;;;;;;;;;21.63;39.39;95762.31;10471938;28;2796;-60
2024/04/07 15:04:30;;;;;;;;;;;;;;;21.63;39.45;95763.09;10472901;28;2326;-60
2024/04/07 15:09:31;;;;;;;;;;;;;;;21.63;39.65;95757.81;10470400;28;2801;-61
2024/04/07 15:14:32;;;;;;;;;;;;;;;21.63;39.74;95744.63;10466178;28;2927;-61
2024/04/07 15:19:34;;;;;;;;;;;;;;;21.63;39.50;95733.28;10446715;28;2805;-61
2024/04/07 15:24:34;;;;;;;;;;;;;;;21.64;39.24;95727.72;10481550;28;2769;-61
2024/04/07 15:29:36;;;;;;;;;;;;;;;21.64;39.40;95721.66;10468326;28;2813;-61
2024/04/07 15:34:37;;;;;;;;;;;;;;;21.64;39.50;95711.91;10466451;28;2576;-61
2024/04/07 15:39:37;;;;;;;;;;;;;;;21.65;39.43;95712.69;10431196;28;2915;-61
2024/04/07 15:44:37;;;;;;;;;;;;;;;21.64;39.45;95703.19;10467724;28;2741;-61
2024/04/07 15:49:37;;;;;;;;;;;;;;;21.63;39.65;95702.44;10450180;28;2935;-61
2024/04/07 15:54:38;;;;;;;;;;;;;;;21.64;39.46;95698.72;10469150;28;2853;-61
2024/04/07 15:59:38;;;;;;;;;;;;;;;21.63;39.52;95704.28;10434290;28;2857;-61
2024/04/07 16:04:38;;;;;;;;;;;;;;;21.63;39.38;95685.81;10465663;28;2763;-60
2024/04/07 16:09:39;;;;;;;;;;;;;;;21.62;39.48;95685.00;10467235;28;2761;-61
2024/04/07 16:14:39;;;;;;;;;;;;;;;21.63;39.51;95686.59;10431639;28;2846;-61
2024/04/07 16:19:39;;;;;;;;;;;;;;;21.63;39.60;95685.81;10465495;28;2785;-61
2024/04/07 16:24:41;;;;;;;;;;;;;;;21.64;39.34;95692.63;10463573;28;2806;-60
2024/04/07 16:29:41;;;;;;;;;;;;;;;21.63;39.30;95683.16;10468250;28;2816;-61
2024/04/07 16:34:42;;;;;;;;;;;;;;;21.63;39.50;95677.91;10453934;28;2797;-61
2024/04/07 16:39:45;;;;;;;;;;;;;;;21.64;39.30;95684.72;10462929;28;2790;-60
2024/04/07 16:44:48;;;;;;;;;;;;;;;21.63;39.41;95678.69;10446985;28;2780;-60
2024/04/07 16:49:48;;;;;;;;;;;;;;;21.64;39.48;95669.69;10449895;28;2761;-62
2024/04/07 16:54:49;;;;;;;;;;;;;;;21.63;39.51;95673.41;10465553;28;2715;-60
2024/04/07 16:59:49;;;;;;;;;;;;;;;21.63;39.40;95667.34;10466282;28;2793;-60
2024/04/07 17:04:50;;;;;;;;;;;;;;;21.63;39.47;95662.84;10433347;28;2642;-60
2024/04/07 17:09:50;;;;;;;;;;;;;;;21.63;39.30;95654.16;10462060;28;2804;-60
2024/04/07 17:16:11;;;;;;;;;;;;;;;21.64;39.51;95659.13;11312602;25;2948;-60
2024/04/07 17:21:11;;;;;;;;;;;;;;;21.64;39.48;95645.16;11270151;26;3040;-59
2024/04/07 17:26:11;;;;;;;;;;;;;;;21.63;39.48;95643.59;11271430;26;3227;-59
2024/04/07 17:31:11;;;;;;;;;;;;;;;21.63;39.41;95635.69;11270761;26;3201;-60
2024/04/07 17:36:12;;;;;;;;;;;;;;;21.63;39.54;95644.41;11270351;26;3112;-60
2024/04/07 17:41:12;;;;;;;;;;;;;;;21.64;39.56;95642.53;11272042;26;3099;-60
2024/04/07 17:46:14;;;;;;;;;;;;;;;21.64;39.48;95634.59;11265843;26;3217;-59
2024/04/07 17:51:14;;;;;;;;;;;;;;;21.63;39.48;95631.19;11273729;26;2968;-61
2024/04/07 17:56:14;;;;;;;;;;;;;;;21.64;39.29;95624.06;11277155;26;3100;-59
2024/04/07 18:01:15;;;;;;;;;;;;;;;21.64;39.56;95626.69;11267163;26;3145;-59
2024/04/07 18:06:15;;;;;;;;;;;;;;;21.64;39.70;95626.69;11272902;26;3176;-59
2024/04/07 18:11:15;;;;;;;;;;;;;;;21.64;39.36;95627.47;11265127;26;3101;-59
2024/04/07 18:16:17;;;;;;;;;;;;;;;21.65;39.30;95628.28;11255020;26;3209;-60
2024/04/07 18:21:18;;;;;;;;;;;;;;;21.65;39.52;95633.56;11255486;26;3101;-59
2024/04/07 18:26:18;;;;;;;;;;;;;;;21.66;39.79;95627.19;11249853;26;3137;-59
2024/04/07 18:31:18;;;;;;;;;;;;;;;21.66;39.85;95625.34;11235764;26;3037;-60
2024/04/07 18:36:21;;;;;;;;;;;;;;;21.66;39.51;95625.34;11221211;26;3113;-59
2024/04/07 18:41:21;;;;;;;;;;;;;;;21.67;39.72;95618.22;11229543;26;3124;-59
2024/04/07 18:46:21;;;;;;;;;;;;;;;21.67;39.71;95615.59;11224905;26;2922;-59
2024/04/07 18:51:21;;;;;;;;;;;;;;;21.68;39.56;95619.78;11228952;26;3134;-59
2024/04/07 18:56:22;;;;;;;;;;;;;;;21.67;39.68;95600.56;11233900;26;2971;-59
2024/04/07 19:01:22;;;;;;;;;;;;;;;21.67;39.78;95592.63;11233265;26;3183;-59
2024/04/07 19:06:23;;;;;;;;;;;;;;;21.67;39.89;95578.66;11229297;26;3101;-59
2024/04/07 19:11:23;;;;;;;;;;;;;;;21.68;39.98;95577.56;11254608;26;3005;-61
2024/04/07 19:16:23;;;;;;;;;;;;;;;21.68;39.92;95575.72;11231157;26;3108;-60
2024/04/07 19:21:26;;;;;;;;;;;;;;;21.68;39.73;95574.94;11230809;26;3109;-60
2024/04/07 19:26:28;;;;;;;;;;;;;;;21.70;39.85;95570.19;11225256;26;3031;-60
2024/04/07 19:31:28;;;;;;;;;;;;;;;21.68;40.07;95559.91;11214166;26;3082;-59
2024/04/07 19:36:29;;;;;;;;;;;;;;;21.67;39.70;95563.63;11225041;26;3076;-60
2024/04/07 19:41:29;;;;;;;;;;;;;;;21.68;40.06;95559.91;11225996;26;3131;-59
2024/04/07 19:46:30;;;;;;;;;;;;;;;21.69;39.74;95550.13;11202409;26;3884;-61
2024/04/07 19:51:31;;;;;;;;;;;;;;;21.69;39.78;95547.50;11236525;26;3114;-61
2024/04/07 19:56:32;;;;;;;;;;;;;;;21.70;40.32;95543.81;11228063;26;3188;-62
2024/04/07 20:01:32;;;;;;;;;;;;;;;21.71;40.50;95542.72;11231916;26;3021;-62
2024/04/07 20:06:32;;;;;;;;;;;;;;;21.70;40.50;95543.81;11220341;26;2987;-62
2024/04/07 20:11:32;;;;;;;;;;;;;;;21.71;40.22;95545.34;11236516;26;2840;-62
2024/04/07 20:16:35;;;;;;;;;;;;;;;21.71;40.39;95537.44;11196979;26;3222;-62
2024/04/07 20:21:35;;;;;;;;;;;;;;;21.71;40.61;95538.25;11230597;26;2813;-62
2024/04/07 20:26:35;;;;;;;;;;;;;;;21.72;40.77;95544.31;11233649;26;3109;-62
2024/04/07 20:31:36;;;;;;;;;;;;;;;21.72;40.47;95539.03;11231838;26;3189;-62
2024/04/07 20:36:37;;;;;;;;;;;;;;;21.72;40.81;95536.38;11173314;26;2917;-61
2024/04/07 20:41:37;;;;;;;;;;;;;;;21.74;40.75;95539.53;11234765;26;3151;-62
2024/04/07 20:46:38;;;;;;;;;;;;;;;21.73;40.63;95538.75;11205959;26;3121;-62
2024/04/07 20:51:38;;;;;;;;;;;;;;;21.73;40.76;95525.53;11227334;26;2610;-62
2024/04/07 20:56:38;;;;;;;;;;;;;;;21.72;40.77;95523.19;11228677;26;3087;-61
2024/04/07 21:01:38;;;;;;;;;;;;;;;21.73;40.69;95530.81;11233020;26;3041;-61
2024/04/07 21:06:39;;;;;;;;;;;;;;;21.72;40.79;95523.97;11238929;26;3197;-61
2024/04/07 21:11:39;;;;;;;;;;;;;;;21.72;40.74;95528.47;11232371;26;3086;-61
2024/04/07 21:16:39;;;;;;;;;;;;;;;21.72;40.64;95523.19;11225323;26;2903;-62
2024/04/07 21:21:40;;;;;;;;;;;;;;;21.72;40.43;95517.94;11230145;26;3223;-61
2024/04/07 21:26:40;;;;;;;;;;;;;;;21.72;40.60;95523.19;11228113;26;3207;-62
2024/04/07 21:31:40;;;;;;;;;;;;;;;21.72;40.91;95520.56;11222619;26;2973;-61
2024/04/07 21:36:42;;;;;;;;;;;;;;;21.72;40.86;95515.28;11233653;26;3017;-61
2024/04/07 21:41:42;;;;;;;;;;;;;;;21.73;40.80;95511.56;11226377;26;2991;-61
2024/04/07 21:46:42;;;;;;;;;;;;;;;21.71;40.79;95501.31;11229266;26;3019;-61
2024/04/07 21:51:43;;;;;;;;;;;;;;;21.72;40.53;95488.91;11236394;26;3098;-62
2024/04/07 21:56:43;;;;;;;;;;;;;;;21.73;40.75;95479.91;11228034;26;2725;-61
2024/04/07 22:01:46;;;;;;;;;;;;;;;21.73;40.75;95472.78;11223090;26;3121;-62
2024/04/07 22:06:46;;;;;;;;;;;;;;;21.70;40.52;95464.66;11234391;26;3033;-62
2024/04/07 22:11:47;;;;;;;;;;;;;;;21.72;40.64;95459.88;11232119;26;3144;-61
2024/04/07 22:16:47;;;;;;;;;;;;;;;21.72;40.81;95450.09;11232190;26;3262;-62
2024/04/07 22:21:47;;;;;;;;;;;;;;;21.71;40.78;95448.53;11229724;26;3136;-61
2024/04/07 22:26:47;;;;;;;;;;;;;;;21.71;40.71;95445.13;11238752;26;2988;-62
2024/04/07 22:31:48;;;;;;;;;;;;;;;21.72;40.50;95449.34;11234598;26;3072;-61
2024/04/07 22:36:48;;;;;;;;;;;;;;;21.71;40.47;95437.19;11234889;26;3046;-61
2024/04/07 22:41:48;;;;;;;;;;;;;;;21.71;40.49;95435.34;11236610;26;2938;-62
2024/04/07 22:46:48;;;;;;;;;;;;;;;21.71;40.63;95427.44;11239596;26;3100;-62
2024/04/07 22:51:49;;;;;;;;;;;;;;;21.71;40.79;95422.16;11253064;26;3108;-61
2024/04/07 22:56:51;;;;;;;;;;;;;;;21.71;40.69;95414.25;11235917;26;3162;-61
2024/04/07 23:01:51;;;;;;;;;;;;;;;21.70;40.32;95406.63;11240216;26;3054;-62
2024/04/07 23:06:52;;;;;;;;;;;;;;;21.71;40.83;95400.28;11239058;26;3179;-62
2024/04/07 23:11:52;;;;;;;;;;;;;;;21.71;40.67;95400.28;11225596;26;3105;-61
2024/04/07 23:16:53;;;;;;;;;;;;;;;21.72;40.42;95396.56;11237093;26;3018;-62
2024/04/07 23:21:53;;;;;;;;;;;;;;;21.69;40.43;95376.81;11235123;26;3295;-62
2024/04/07 23:26:53;;;;;;;;;;;;;;;21.69;40.42;95382.09;11228467;26;3089;-62
2024/04/07 23:31:54;;;;;;;;;;;;;;;21.70;40.51;95372.34;11232331;26;3072;-62
2024/04/07 23:36:54;;;;;;;;;;;;;;;21.69;40.36;95374.19;11221047;26;3024;-62
2024/04/07 23:41:54;;;;;;;;;;;;;;;21.70;40.78;95361.78;11239012;26;3207;-62
2024/04/07 23:46:54;;;;;;;;;;;;;;;21.69;40.30;95353.09;11240979;26;2975;-62
2024/04/07 23:51:55;;;;;;;;;;;;;;;21.70;40.37;95356.50;11242875;26;3015;-61
2024/04/07 23:56:55;;;;;;;;;;;;;;;21.69;40.38;95345.16;11239719;26;3093;-62
